Time;durP1;ratioP1;P1;durP2;ratioP2;P2;SDS_P1;SDS_P2;PMS_P1;PMS_P2;Temp;Humidity;BMP_temperature;BMP_pressure;BME280_temperature;BME280_humidity;BME280_pressure;Samples;Min_cycle;Max_cycle;Signal;HPM_P1;HPM_P2
2021/03/25 00:01:49;;;;;;;50.40;30.23;;;;;;;;;;5079925;28;20464;-71
2021/03/25 00:04:17;;;;;;;54.30;29.13;;;;;;;;;;5080543;28;20717;-72
2021/03/25 00:06:46;;;;;;;56.60;32.47;;;;;;;;;;5079896;28;20467;-71
2021/03/25 00:09:16;;;;;;;47.30;27.40;;;;;;;;;;5080189;28;20456;-71
2021/03/25 00:11:43;;;;;;;49.27;27.03;;;;;;;;;;5095720;28;20470;-71
2021/03/25 00:14:11;;;;;;;51.40;30.77;;;;;;;;;;5100083;28;20452;-71
2021/03/25 00:16:38;;;;;;;49.50;28.30;;;;;;;;;;5099688;28;20495;-71
2021/03/25 00:19:06;;;;;;;47.67;27.80;;;;;;;;;;5099311;28;20460;-71
2021/03/25 00:21:34;;;;;;;43.53;26.30;;;;;;;;;;5099716;28;20565;-71
2021/03/25 00:24:01;;;;;;;44.70;26.10;;;;;;;;;;5099366;28;20452;-72
2021/03/25 00:26:29;;;;;;;43.43;24.93;;;;;;;;;;5099752;28;20474;-71
2021/03/25 00:28:57;;;;;;;47.73;27.17;;;;;;;;;;5099379;28;20456;-71
2021/03/25 00:31:24;;;;;;;45.63;26.20;;;;;;;;;;5099599;28;20462;-71
2021/03/25 00:33:52;;;;;;;46.97;24.67;;;;;;;;;;5099491;28;20452;-71
2021/03/25 00:36:20;;;;;;;43.60;24.40;;;;;;;;;;5099518;28;20468;-71
2021/03/25 00:38:48;;;;;;;43.80;25.70;;;;;;;;;;5099319;28;20544;-72
2021/03/25 00:41:15;;;;;;;54.73;25.20;;;;;;;;;;5098745;28;20455;-71
2021/03/25 00:43:43;;;;;;;42.00;25.77;;;;;;;;;;5098959;28;20448;-71
2021/03/25 00:46:11;;;;;;;51.60;25.90;;;;;;;;;;5098883;28;20530;-72
2021/03/25 00:48:38;;;;;;;50.80;25.87;;;;;;;;;;5098634;28;20500;-71
2021/03/25 00:51:05;;;;;;;47.90;25.20;;;;;;;;;;5098914;28;20494;-71
2021/03/25 00:53:34;;;;;;;46.13;26.93;;;;;;;;;;5099202;28;20452;-72
2021/03/25 00:56:01;;;;;;;47.40;26.70;;;;;;;;;;5099108;28;20464;-72
2021/03/25 00:58:29;;;;;;;48.97;25.07;;;;;;;;;;5099591;28;20464;-72
2021/03/25 01:01:00;;;;;;;44.93;25.50;;;;;;;;;;5087669;28;20452;-72
2021/03/25 01:03:28;;;;;;;53.60;27.00;;;;;;;;;;5078456;28;20570;-72
2021/03/25 01:05:55;;;;;;;41.73;23.50;;;;;;;;;;5079501;28;21060;-72
2021/03/25 01:08:23;;;;;;;45.97;25.20;;;;;;;;;;5079459;28;20488;-72
2021/03/25 01:10:51;;;;;;;46.73;25.10;;;;;;;;;;5078439;28;20924;-72
2021/03/25 01:13:22;;;;;;;48.07;24.57;;;;;;;;;;5079019;28;20861;-72
2021/03/25 01:15:50;;;;;;;50.57;25.13;;;;;;;;;;5077796;28;20911;-72
2021/03/25 01:18:19;;;;;;;45.43;24.00;;;;;;;;;;5079300;28;20456;-72
2021/03/25 01:20:46;;;;;;;49.50;25.10;;;;;;;;;;5079246;28;20454;-72
2021/03/25 01:23:14;;;;;;;43.87;22.63;;;;;;;;;;5078525;28;20901;-72
2021/03/25 01:25:42;;;;;;;41.20;22.80;;;;;;;;;;5078283;28;20452;-72
2021/03/25 01:28:10;;;;;;;39.07;21.07;;;;;;;;;;5094055;28;20480;-71
2021/03/25 01:30:38;;;;;;;45.07;24.67;;;;;;;;;;5095957;28;20718;-71
2021/03/25 01:33:06;;;;;;;45.17;25.43;;;;;;;;;;5098549;28;20596;-71
2021/03/25 01:35:35;;;;;;;48.27;24.80;;;;;;;;;;5097987;28;20535;-71
2021/03/25 01:38:03;;;;;;;43.27;23.67;;;;;;;;;;5097302;28;20463;-71
2021/03/25 01:40:32;;;;;;;54.87;26.83;;;;;;;;;;5097164;28;20452;-71
2021/03/25 01:43:11;;;;;;;44.40;27.30;;;;;;;;;;5097322;28;20510;-71
2021/03/25 01:45:41;;;;;;;53.63;26.77;;;;;;;;;;5097204;28;20455;-73
2021/03/25 01:48:08;;;;;;;50.30;29.00;;;;;;;;;;5097084;28;20712;-72
2021/03/25 01:50:37;;;;;;;46.43;25.83;;;;;;;;;;5097284;28;20464;-72
2021/03/25 01:53:11;;;;;;;53.73;28.20;;;;;;;;;;5097298;28;20461;-72
2021/03/25 01:55:48;;;;;;;53.73;30.30;;;;;;;;;;5082215;28;20468;-72
2021/03/25 01:58:31;;;;;;;48.63;26.83;;;;;;;;;;5078439;28;20550;-72
2021/03/25 02:01:03;;;;;;;57.40;26.97;;;;;;;;;;5076033;28;20465;-72
2021/03/25 02:03:40;;;;;;;47.47;26.57;;;;;;;;;;5077261;28;20751;-72
2021/03/25 02:06:13;;;;;;;57.13;29.07;;;;;;;;;;5080448;28;20471;-72
2021/03/25 02:08:47;;;;;;;58.53;33.60;;;;;;;;;;5097032;28;20494;-72
2021/03/25 02:11:19;;;;;;;59.27;30.03;;;;;;;;;;5097321;28;20714;-72
2021/03/25 02:13:51;;;;;;;51.40;29.87;;;;;;;;;;5097122;28;20468;-72
2021/03/25 02:16:21;;;;;;;67.33;32.27;;;;;;;;;;5097052;28;20488;-72
2021/03/25 02:18:55;;;;;;;54.37;30.60;;;;;;;;;;5097058;28;20451;-72
2021/03/25 02:21:34;;;;;;;51.40;28.00;;;;;;;;;;5096924;28;20464;-72
2021/03/25 02:24:07;;;;;;;59.00;31.60;;;;;;;;;;5096297;28;20467;-72
2021/03/25 02:26:37;;;;;;;58.70;28.73;;;;;;;;;;5097368;28;20485;-72
2021/03/25 02:29:14;;;;;;;55.97;29.70;;;;;;;;;;5097266;28;20493;-72
2021/03/25 02:31:45;;;;;;;53.50;29.80;;;;;;;;;;5097317;28;20538;-72
2021/03/25 02:34:13;;;;;;;62.70;29.10;;;;;;;;;;5097054;28;20460;-73
2021/03/25 02:36:44;;;;;;;61.83;31.53;;;;;;;;;;5096580;28;20852;-72
2021/03/25 02:39:13;;;;;;;50.80;25.93;;;;;;;;;;5097502;28;20460;-72
2021/03/25 02:41:42;;;;;;;54.67;27.83;;;;;;;;;;5096788;28;20479;-72
2021/03/25 02:44:11;;;;;;;53.40;26.60;;;;;;;;;;5096659;28;20860;-72
2021/03/25 02:46:41;;;;;;;47.13;25.50;;;;;;;;;;5096139;28;20744;-72
2021/03/25 02:49:11;;;;;;;44.67;27.07;;;;;;;;;;5096332;28;20810;-72
2021/03/25 02:51:40;;;;;;;47.73;26.00;;;;;;;;;;5076914;28;20453;-73
2021/03/25 02:54:08;;;;;;;49.17;24.50;;;;;;;;;;5076679;28;20484;-72
2021/03/25 02:56:38;;;;;;;46.77;25.13;;;;;;;;;;5090817;28;20525;-72
2021/03/25 02:59:11;;;;;;;49.23;26.03;;;;;;;;;;5097212;28;20467;-72
2021/03/25 03:01:41;;;;;;;56.63;27.00;;;;;;;;;;5096984;28;20460;-72
2021/03/25 03:04:11;;;;;;;51.70;26.63;;;;;;;;;;5096789;28;20468;-72
2021/03/25 03:06:40;;;;;;;55.13;26.50;;;;;;;;;;5096427;28;20476;-72
2021/03/25 03:09:09;;;;;;;42.40;24.30;;;;;;;;;;5096730;28;20943;-72
2021/03/25 03:11:38;;;;;;;52.73;26.73;;;;;;;;;;5081720;28;20462;-72
2021/03/25 03:14:07;;;;;;;42.30;24.90;;;;;;;;;;5080052;28;20786;-73
2021/03/25 03:16:36;;;;;;;40.00;24.10;;;;;;;;;;5099705;28;20460;-73
2021/03/25 03:19:06;;;;;;;45.53;24.30;;;;;;;;;;5100072;28;20718;-72
2021/03/25 03:21:41;;;;;;;50.07;24.20;;;;;;;;;;5100547;28;20455;-72
2021/03/25 03:24:09;;;;;;;48.63;23.40;;;;;;;;;;5100629;28;20474;-73
2021/03/25 03:26:39;;;;;;;47.63;25.87;;;;;;;;;;5100329;28;20928;-73
2021/03/25 03:29:08;;;;;;;44.60;23.87;;;;;;;;;;5099932;28;20896;-73
2021/03/25 03:31:39;;;;;;;49.37;26.50;;;;;;;;;;5100428;28;20459;-72
2021/03/25 03:34:08;;;;;;;45.30;24.57;;;;;;;;;;5100200;28;20481;-72
2021/03/25 03:36:39;;;;;;;46.57;25.93;;;;;;;;;;5099366;28;20456;-72
2021/03/25 03:39:08;;;;;;;52.73;26.87;;;;;;;;;;5100132;27;20472;-72
2021/03/25 03:41:40;;;;;;;56.37;26.60;;;;;;;;;;5097835;28;20549;-72
2021/03/25 03:44:08;;;;;;;43.97;24.70;;;;;;;;;;5100448;28;20465;-72
2021/03/25 03:46:36;;;;;;;49.93;25.60;;;;;;;;;;5099822;28;20494;-72
2021/03/25 03:49:09;;;;;;;43.60;25.13;;;;;;;;;;5100366;28;20772;-72
2021/03/25 03:51:41;;;;;;;38.27;23.93;;;;;;;;;;5101083;28;20462;-72
2021/03/25 03:54:09;;;;;;;52.00;24.87;;;;;;;;;;5099433;28;20448;-72
2021/03/25 03:56:39;;;;;;;48.63;26.07;;;;;;;;;;5100807;28;20528;-72
2021/03/25 03:59:10;;;;;;;52.43;26.80;;;;;;;;;;5095445;28;20467;-72
2021/03/25 04:01:39;;;;;;;59.93;26.27;;;;;;;;;;5080341;28;20467;-72
2021/03/25 04:04:07;;;;;;;55.30;27.80;;;;;;;;;;5080401;28;20456;-72
2021/03/25 04:06:37;;;;;;;60.60;28.03;;;;;;;;;;5083302;28;20462;-72
2021/03/25 04:09:11;;;;;;;58.33;27.83;;;;;;;;;;5089665;28;20550;-73
2021/03/25 04:11:40;;;;;;;56.27;27.00;;;;;;;;;;5079709;28;20482;-72
2021/03/25 04:14:10;;;;;;;55.67;30.30;;;;;;;;;;5079795;28;20845;-72
2021/03/25 04:16:38;;;;;;;53.40;27.37;;;;;;;;;;5077794;28;20468;-72
2021/03/25 04:19:09;;;;;;;56.17;29.90;;;;;;;;;;5078962;28;20458;-72
2021/03/25 04:21:41;;;;;;;57.17;28.73;;;;;;;;;;5078944;28;20459;-72
2021/03/25 04:24:10;;;;;;;52.57;28.13;;;;;;;;;;5078483;28;20471;-72
2021/03/25 04:26:41;;;;;;;52.30;25.83;;;;;;;;;;5078380;28;20882;-72
2021/03/25 04:29:10;;;;;;;49.00;25.70;;;;;;;;;;5078503;28;20753;-72
2021/03/25 04:31:37;;;;;;;48.93;24.53;;;;;;;;;;5079109;28;20605;-72
2021/03/25 04:34:05;;;;;;;56.53;26.43;;;;;;;;;;5078698;28;20460;-72
2021/03/25 04:36:34;;;;;;;54.50;28.17;;;;;;;;;;5080917;28;20895;-72
2021/03/25 04:39:02;;;;;;;56.77;26.43;;;;;;;;;;5086838;28;20564;-72
2021/03/25 04:41:32;;;;;;;46.90;24.13;;;;;;;;;;5099318;28;20452;-72
2021/03/25 04:44:02;;;;;;;39.53;22.80;;;;;;;;;;5099020;28;20910;-72
2021/03/25 04:46:36;;;;;;;46.27;22.83;;;;;;;;;;5096003;28;20499;-72
2021/03/25 04:49:05;;;;;;;47.20;27.03;;;;;;;;;;5078661;28;21020;-72
2021/03/25 04:51:34;;;;;;;45.60;23.60;;;;;;;;;;5079706;28;20469;-72
2021/03/25 04:54:20;;;;;;;49.90;23.87;;;;;;;;;;5089041;28;20465;-72
2021/03/25 04:56:48;;;;;;;51.67;26.67;;;;;;;;;;5072550;28;20462;-72
2021/03/25 04:59:15;;;;;;;52.47;25.90;;;;;;;;;;5080847;28;20959;-72
2021/03/25 05:01:46;;;;;;;48.67;24.47;;;;;;;;;;5083061;28;20457;-72
2021/03/25 05:04:15;;;;;;;48.03;24.73;;;;;;;;;;5098811;28;20452;-72
2021/03/25 05:06:47;;;;;;;49.57;25.90;;;;;;;;;;5098454;28;20472;-72
2021/03/25 05:09:18;;;;;;;55.80;26.33;;;;;;;;;;5098267;28;20561;-72
2021/03/25 05:11:45;;;;;;;50.23;26.80;;;;;;;;;;5098641;28;20455;-72
2021/03/25 05:14:18;;;;;;;40.63;22.80;;;;;;;;;;5091290;28;20518;-72
2021/03/25 05:16:49;;;;;;;48.80;26.40;;;;;;;;;;5078117;28;20477;-72
2021/03/25 05:19:22;;;;;;;49.57;27.30;;;;;;;;;;5077776;28;20487;-72
2021/03/25 05:21:55;;;;;;;46.60;23.50;;;;;;;;;;5078296;28;20484;-72
2021/03/25 05:24:27;;;;;;;52.53;26.23;;;;;;;;;;5078092;28;20471;-72
2021/03/25 05:26:56;;;;;;;48.70;25.83;;;;;;;;;;5082189;28;20503;-72
2021/03/25 05:29:27;;;;;;;42.33;22.63;;;;;;;;;;5078146;28;20526;-72
2021/03/25 05:31:55;;;;;;;49.80;23.87;;;;;;;;;;5088418;28;20445;-72
2021/03/25 05:34:23;;;;;;;42.70;24.00;;;;;;;;;;5098367;28;20490;-72
2021/03/25 05:36:54;;;;;;;51.20;24.13;;;;;;;;;;5097879;28;20454;-72
2021/03/25 05:39:22;;;;;;;45.73;24.20;;;;;;;;;;5098207;28;20467;-72
2021/03/25 05:41:53;;;;;;;75.57;37.27;;;;;;;;;;5098211;28;20452;-72
2021/03/25 05:44:35;;;;;;;47.30;23.20;;;;;;;;;;5097367;28;20525;-73
2021/03/25 05:47:12;;;;;;;52.43;24.40;;;;;;;;;;5097485;28;20461;-72
2021/03/25 05:49:43;;;;;;;53.07;26.00;;;;;;;;;;5097521;28;20881;-71
2021/03/25 05:52:23;;;;;;;50.17;24.27;;;;;;;;;;5082584;28;20803;-73
2021/03/25 05:55:12;;;;;;;52.20;22.83;;;;;;;;;;5097354;28;20862;-72
2021/03/25 05:57:44;;;;;;;53.27;25.70;;;;;;;;;;5059513;28;20466;-72
2021/03/25 06:00:16;;;;;;;48.57;24.87;;;;;;;;;;5075241;28;20455;-72
2021/03/25 06:02:51;;;;;;;53.30;25.83;;;;;;;;;;5076336;28;20459;-73
2021/03/25 06:05:19;;;;;;;50.50;27.57;;;;;;;;;;5078310;28;20460;-72
2021/03/25 06:08:04;;;;;;;48.37;25.13;;;;;;;;;;5087627;28;20567;-71
2021/03/25 06:10:38;;;;;;;44.57;24.80;;;;;;;;;;5082406;28;20479;-72
2021/03/25 06:13:16;;;;;;;47.67;24.83;;;;;;;;;;5093939;28;20456;-73
2021/03/25 06:16:11;;;;;;;52.13;28.80;;;;;;;;;;5085064;28;20971;-73
2021/03/25 06:18:52;;;;;;;54.83;26.93;;;;;;;;;;5007518;28;20551;-72
2021/03/25 06:21:28;;;;;;;44.10;24.57;;;;;;;;;;5079142;28;20460;-72
2021/03/25 06:24:10;;;;;;;49.73;27.70;;;;;;;;;;5079797;28;20460;-72
2021/03/25 06:26:41;;;;;;;51.10;25.73;;;;;;;;;;5082176;28;20470;-72
2021/03/25 06:29:16;;;;;;;58.53;27.60;;;;;;;;;;5076883;28;20494;-72
2021/03/25 06:32:00;;;;;;;56.37;28.47;;;;;;;;;;5080380;28;20484;-73
2021/03/25 06:34:30;;;;;;;47.87;25.23;;;;;;;;;;5079293;28;20961;-72
2021/03/25 06:37:01;;;;;;;63.30;28.20;;;;;;;;;;5075179;28;20456;-72
2021/03/25 06:39:31;;;;;;;51.83;27.30;;;;;;;;;;5075072;28;20471;-72
2021/03/25 06:42:03;;;;;;;52.30;29.23;;;;;;;;;;5095505;28;20488;-71
2021/03/25 06:44:34;;;;;;;56.13;27.50;;;;;;;;;;5095168;28;20463;-72
2021/03/25 06:47:12;;;;;;;62.50;29.67;;;;;;;;;;5082521;28;20464;-72
2021/03/25 06:49:54;;;;;;;51.37;26.60;;;;;;;;;;5077493;28;20539;-72
2021/03/25 06:52:25;;;;;;;55.53;27.33;;;;;;;;;;5083548;28;20461;-72
2021/03/25 06:54:54;;;;;;;54.10;27.77;;;;;;;;;;5108534;28;20458;-72
2021/03/25 06:57:24;;;;;;;63.00;31.43;;;;;;;;;;5091314;28;20841;-72
2021/03/25 06:59:54;;;;;;;50.37;25.87;;;;;;;;;;5089380;28;20440;-72
2021/03/25 07:02:24;;;;;;;48.90;29.30;;;;;;;;;;5096533;28;20550;-72
2021/03/25 07:04:59;;;;;;;52.67;28.47;;;;;;;;;;5075842;28;20453;-73
2021/03/25 07:07:32;;;;;;;49.53;29.87;;;;;;;;;;5075792;28;20465;-72
2021/03/25 07:10:03;;;;;;;48.73;29.63;;;;;;;;;;5090432;28;20475;-72
2021/03/25 07:12:32;;;;;;;46.63;25.30;;;;;;;;;;5095666;28;20483;-72
2021/03/25 07:15:00;;;;;;;55.60;29.20;;;;;;;;;;5095352;28;20459;-71
2021/03/25 07:17:34;;;;;;;56.93;30.10;;;;;;;;;;5095405;28;20537;-71
2021/03/25 07:20:16;;;;;;;47.83;28.47;;;;;;;;;;5095070;28;20895;-71
2021/03/25 07:22:43;;;;;;;44.33;29.17;;;;;;;;;;5089955;28;20586;-71
2021/03/25 07:25:18;;;;;;;51.97;25.77;;;;;;;;;;5091532;28;20464;-73
2021/03/25 07:27:46;;;;;;;50.77;27.97;;;;;;;;;;5080298;28;20919;-72
2021/03/25 07:30:16;;;;;;;54.27;26.00;;;;;;;;;;5075507;28;20458;-72
2021/03/25 07:32:47;;;;;;;52.77;28.73;;;;;;;;;;5075638;28;20461;-72
2021/03/25 07:35:17;;;;;;;52.57;27.90;;;;;;;;;;5075067;28;20988;-72
2021/03/25 07:37:45;;;;;;;50.40;29.33;;;;;;;;;;5077338;28;20567;-71
2021/03/25 07:40:24;;;;;;;50.20;28.17;;;;;;;;;;5087101;28;20486;-71
2021/03/25 07:42:52;;;;;;;49.97;27.17;;;;;;;;;;5076242;28;20536;-71
2021/03/25 07:45:25;;;;;;;50.13;28.50;;;;;;;;;;5076244;28;20931;-71
2021/03/25 07:47:53;;;;;;;49.87;26.50;;;;;;;;;;5076928;28;20489;-73
2021/03/25 07:50:26;;;;;;;49.50;26.83;;;;;;;;;;5076676;28;20468;-72
2021/03/25 07:52:54;;;;;;;45.73;26.57;;;;;;;;;;5093198;28;20760;-72
2021/03/25 07:55:27;;;;;;;48.93;28.90;;;;;;;;;;5079671;28;20908;-72
2021/03/25 07:57:55;;;;;;;42.90;25.30;;;;;;;;;;5097797;28;20481;-72
2021/03/25 08:00:27;;;;;;;45.73;26.53;;;;;;;;;;5083954;28;20837;-71
2021/03/25 08:03:10;;;;;;;47.93;26.63;;;;;;;;;;5089325;28;20460;-72
2021/03/25 08:05:40;;;;;;;47.20;27.27;;;;;;;;;;5090613;28;20529;-71
2021/03/25 08:08:19;;;;;;;38.67;23.73;;;;;;;;;;5089384;28;20549;-71
2021/03/25 08:10:48;;;;;;;41.43;25.13;;;;;;;;;;5100299;28;20842;-72
2021/03/25 08:13:17;;;;;;;39.03;23.37;;;;;;;;;;5095990;27;20528;-71
2021/03/25 08:15:46;;;;;;;41.80;24.90;;;;;;;;;;5122327;27;20466;-71
2021/03/25 08:18:20;;;;;;;46.23;22.93;;;;;;;;;;5079571;28;20467;-71
2021/03/25 08:21:07;;;;;;;39.77;24.63;;;;;;;;;;5079504;28;20481;-71
2021/03/25 08:23:45;;;;;;;37.40;22.60;;;;;;;;;;5079856;28;20551;-71
2021/03/25 08:26:17;;;;;;;39.83;21.00;;;;;;;;;;5082395;28;20458;-71
2021/03/25 08:28:57;;;;;;;35.53;21.70;;;;;;;;;;5098485;28;20489;-71
2021/03/25 08:31:32;;;;;;;38.87;22.17;;;;;;;;;;5079144;28;20481;-71
2021/03/25 08:34:20;;;;;;;36.77;23.20;;;;;;;;;;5078242;28;20478;-71
2021/03/25 08:36:58;;;;;;;34.90;22.10;;;;;;;;;;5043502;28;20467;-72
2021/03/25 08:39:32;;;;;;;43.53;24.30;;;;;;;;;;5077690;28;20746;-72
2021/03/25 08:42:03;;;;;;;32.27;21.50;;;;;;;;;;5076970;28;20468;-71
2021/03/25 08:44:34;;;;;;;32.40;19.67;;;;;;;;;;5077655;28;20448;-71
2021/03/25 08:47:04;;;;;;;30.47;17.73;;;;;;;;;;5077983;28;20456;-72
2021/03/25 08:49:33;;;;;;;36.20;19.60;;;;;;;;;;5077673;28;20789;-71
2021/03/25 08:52:04;;;;;;;38.63;20.17;;;;;;;;;;5078742;28;21124;-71
2021/03/25 08:54:34;;;;;;;31.53;19.07;;;;;;;;;;5079569;28;20522;-72
2021/03/25 08:57:15;;;;;;;43.67;20.00;;;;;;;;;;5078020;28;20472;-71
2021/03/25 08:59:48;;;;;;;39.20;21.93;;;;;;;;;;5079217;28;20854;-71
2021/03/25 09:02:18;;;;;;;37.70;21.27;;;;;;;;;;5079435;28;20471;-71
2021/03/25 09:04:52;;;;;;;30.50;19.70;;;;;;;;;;5077075;28;20444;-72
2021/03/25 09:07:21;;;;;;;33.00;21.20;;;;;;;;;;5078054;28;20556;-71
2021/03/25 09:09:51;;;;;;;39.57;20.63;;;;;;;;;;5077437;28;20487;-71
2021/03/25 09:12:22;;;;;;;28.60;17.50;;;;;;;;;;5076611;28;20456;-71
2021/03/25 09:14:49;;;;;;;33.27;19.57;;;;;;;;;;5077828;28;21673;-71
2021/03/25 09:17:18;;;;;;;29.27;17.10;;;;;;;;;;5077333;28;20507;-71
2021/03/25 09:19:47;;;;;;;30.43;17.00;;;;;;;;;;5078664;28;20919;-71
2021/03/25 09:22:32;;;;;;;30.00;17.40;;;;;;;;;;5077823;28;20472;-71
2021/03/25 09:25:21;;;;;;;24.50;15.43;;;;;;;;;;5085419;28;20445;-71
2021/03/25 09:27:56;;;;;;;23.97;14.43;;;;;;;;;;5090080;28;20557;-70
2021/03/25 09:30:30;;;;;;;18.70;11.90;;;;;;;;;;5089926;28;20452;-70
2021/03/25 09:33:13;;;;;;;23.00;11.53;;;;;;;;;;5077134;28;20487;-71
2021/03/25 09:35:45;;;;;;;19.27;11.07;;;;;;;;;;5084901;28;20444;-71
2021/03/25 09:38:28;;;;;;;23.83;12.50;;;;;;;;;;5080928;28;20759;-71
2021/03/25 09:40:56;;;;;;;21.90;12.20;;;;;;;;;;5088003;28;20807;-71
2021/03/25 09:43:40;;;;;;;19.10;10.30;;;;;;;;;;5077884;28;20860;-71
2021/03/25 09:46:26;;;;;;;22.03;12.43;;;;;;;;;;5078024;28;20459;-71
2021/03/25 09:48:54;;;;;;;19.77;12.50;;;;;;;;;;5079162;28;20954;-71
2021/03/25 09:51:23;;;;;;;25.00;12.47;;;;;;;;;;5091718;28;20456;-71
2021/03/25 09:53:51;;;;;;;19.73;12.73;;;;;;;;;;5078631;28;20472;-73
2021/03/25 09:56:43;;;;;;;19.43;11.90;;;;;;;;;;5078256;28;20518;-70
2021/03/25 09:59:31;;;;;;;20.20;13.40;;;;;;;;;;5058193;28;20889;-71
2021/03/25 10:01:58;;;;;;;20.83;12.10;;;;;;;;;;5076411;28;20521;-71
2021/03/25 10:04:28;;;;;;;22.47;12.63;;;;;;;;;;5077320;28;20456;-70
2021/03/25 10:07:01;;;;;;;19.77;11.17;;;;;;;;;;5083948;28;20459;-71
2021/03/25 10:09:47;;;;;;;23.33;13.50;;;;;;;;;;5096414;28;20910;-71
2021/03/25 10:12:17;;;;;;;16.90;9.90;;;;;;;;;;5096878;28;20451;-71
2021/03/25 10:14:51;;;;;;;12.80;8.77;;;;;;;;;;5090194;28;20446;-71
2021/03/25 10:17:40;;;;;;;11.80;6.57;;;;;;;;;;5085202;28;20465;-71
2021/03/25 10:20:11;;;;;;;10.73;7.27;;;;;;;;;;5097118;28;20544;-71
2021/03/25 10:22:38;;;;;;;12.17;9.17;;;;;;;;;;5097837;28;20544;-71
2021/03/25 10:25:07;;;;;;;13.00;8.17;;;;;;;;;;5092215;28;20480;-71
2021/03/25 10:27:37;;;;;;;10.67;7.03;;;;;;;;;;5099683;28;20467;-70
2021/03/25 10:30:24;;;;;;;12.20;6.90;;;;;;;;;;5097991;28;20463;-72
2021/03/25 10:32:57;;;;;;;10.33;6.90;;;;;;;;;;5096714;28;20471;-72
2021/03/25 10:35:27;;;;;;;13.63;8.03;;;;;;;;;;5094420;28;20488;-71
2021/03/25 10:38:02;;;;;;;10.40;6.93;;;;;;;;;;5095704;28;20463;-72
2021/03/25 10:40:57;;;;;;;6.63;5.07;;;;;;;;;;5091342;28;20461;-72
2021/03/25 10:43:28;;;;;;;10.10;6.10;;;;;;;;;;5084337;28;20473;-72
2021/03/25 10:45:57;;;;;;;9.87;6.33;;;;;;;;;;5082186;28;20449;-72
2021/03/25 10:48:31;;;;;;;10.70;6.77;;;;;;;;;;5089443;28;20485;-73
2021/03/25 10:51:01;;;;;;;10.53;6.50;;;;;;;;;;5079303;28;20454;-72
2021/03/25 10:53:32;;;;;;;11.40;7.20;;;;;;;;;;5085943;28;20478;-72
2021/03/25 10:56:04;;;;;;;13.27;7.77;;;;;;;;;;5085493;28;20463;-73
2021/03/25 10:58:37;;;;;;;14.60;9.03;;;;;;;;;;5080400;28;20529;-72
2021/03/25 11:01:15;;;;;;;17.90;9.00;;;;;;;;;;5075222;28;20463;-72
2021/03/25 11:03:43;;;;;;;13.43;8.20;;;;;;;;;;5078506;28;21997;-73
2021/03/25 11:06:18;;;;;;;13.47;8.00;;;;;;;;;;5083410;28;20454;-73
2021/03/25 11:08:46;;;;;;;11.60;7.27;;;;;;;;;;5078387;28;20579;-72
2021/03/25 11:11:18;;;;;;;17.60;9.10;;;;;;;;;;5096838;28;20470;-72
2021/03/25 11:13:54;;;;;;;17.97;10.30;;;;;;;;;;5094857;28;20467;-72
2021/03/25 11:16:23;;;;;;;9.80;6.73;;;;;;;;;;5079103;28;21141;-72
2021/03/25 11:18:56;;;;;;;9.40;6.33;;;;;;;;;;5086360;28;20525;-73
2021/03/25 11:21:28;;;;;;;13.23;8.50;;;;;;;;;;5095716;28;20515;-72
2021/03/25 11:24:11;;;;;;;10.80;7.53;;;;;;;;;;5101072;28;20449;-72
2021/03/25 11:26:44;;;;;;;12.13;7.20;;;;;;;;;;5074850;28;20440;-74
2021/03/25 11:29:18;;;;;;;10.80;6.70;;;;;;;;;;5076022;28;20498;-73
2021/03/25 11:31:50;;;;;;;9.03;6.33;;;;;;;;;;5075438;28;20461;-72
2021/03/25 11:34:30;;;;;;;18.00;8.73;;;;;;;;;;5077520;28;20447;-73
2021/03/25 11:37:20;;;;;;;11.50;7.07;;;;;;;;;;5085299;28;20458;-73
2021/03/25 11:40:01;;;;;;;11.10;7.03;;;;;;;;;;5079752;28;20441;-77
2021/03/25 11:42:31;;;;;;;9.17;5.90;;;;;;;;;;5079010;28;20493;-72
2021/03/25 11:45:02;;;;;;;11.97;6.83;;;;;;;;;;5079725;28;20482;-72
2021/03/25 11:47:35;;;;;;;9.20;5.97;;;;;;;;;;5078477;28;20452;-72
2021/03/25 11:50:10;;;;;;;16.10;6.03;;;;;;;;;;5077100;28;20946;-72
2021/03/25 11:52:45;;;;;;;7.90;5.37;;;;;;;;;;5089427;28;20462;-73
2021/03/25 11:55:23;;;;;;;11.00;5.57;;;;;;;;;;5081734;28;20452;-71
2021/03/25 11:57:51;;;;;;;6.10;4.20;;;;;;;;;;5084756;28;20861;-72
2021/03/25 12:00:20;;;;;;;7.67;4.50;;;;;;;;;;5080235;28;20491;-71
2021/03/25 12:02:52;;;;;;;7.30;5.13;;;;;;;;;;5080670;28;20473;-71
2021/03/25 12:05:41;;;;;;;6.37;4.13;;;;;;;;;;5084482;28;20452;-71
2021/03/25 12:08:25;;;;;;;10.50;3.90;;;;;;;;;;5096885;28;20537;-71
2021/03/25 12:10:59;;;;;;;5.20;4.67;;;;;;;;;;5088280;28;20488;-72
2021/03/25 12:13:31;;;;;;;9.50;4.47;;;;;;;;;;5084224;28;20774;-71
2021/03/25 12:15:58;;;;;;;5.67;4.10;;;;;;;;;;5086214;28;20522;-71
2021/03/25 12:18:29;;;;;;;8.20;4.60;;;;;;;;;;5081116;28;20477;-71
2021/03/25 12:21:03;;;;;;;6.40;3.80;;;;;;;;;;5084281;28;20467;-71
2021/03/25 12:23:35;;;;;;;5.80;4.23;;;;;;;;;;5079325;28;20777;-71
2021/03/25 12:26:04;;;;;;;7.17;4.47;;;;;;;;;;5078723;28;20456;-71
2021/03/25 12:28:31;;;;;;;6.17;4.13;;;;;;;;;;5084962;28;21099;-71
2021/03/25 12:30:59;;;;;;;7.90;4.50;;;;;;;;;;5082276;28;20451;-72
2021/03/25 12:33:28;;;;;;;6.30;4.37;;;;;;;;;;5098950;28;20480;-71
2021/03/25 12:35:59;;;;;;;9.37;4.43;;;;;;;;;;5081429;28;20896;-72
2021/03/25 12:38:27;;;;;;;7.60;4.10;;;;;;;;;;5079050;28;20888;-71
2021/03/25 12:41:00;;;;;;;7.80;4.13;;;;;;;;;;5077716;28;20453;-73
2021/03/25 12:43:31;;;;;;;9.80;3.57;;;;;;;;;;5086835;28;20514;-72
2021/03/25 12:46:04;;;;;;;8.53;4.60;;;;;;;;;;5097887;28;20448;-72
2021/03/25 12:48:33;;;;;;;7.20;4.97;;;;;;;;;;5092121;28;20499;-71
2021/03/25 12:51:17;;;;;;;6.20;3.80;;;;;;;;;;5089424;27;20797;-72
2021/03/25 12:54:18;;;;;;;6.47;4.37;;;;;;;;;;5083730;28;20803;-71
2021/03/25 12:56:49;;;;;;;8.00;5.10;;;;;;;;;;5081372;28;20450;-71
2021/03/25 12:59:18;;;;;;;8.07;3.40;;;;;;;;;;5078204;28;20502;-71
2021/03/25 13:01:48;;;;;;;8.47;3.83;;;;;;;;;;5065641;28;21023;-70
2021/03/25 13:04:39;;;;;;;8.90;4.40;;;;;;;;;;5090206;28;20454;-71
2021/03/25 13:07:24;;;;;;;6.57;3.90;;;;;;;;;;5077406;28;20533;-71
2021/03/25 13:09:56;;;;;;;7.67;3.83;;;;;;;;;;5087277;28;20489;-72
2021/03/25 13:12:26;;;;;;;10.87;3.77;;;;;;;;;;5085063;28;20880;-72
2021/03/25 13:15:01;;;;;;;9.27;3.83;;;;;;;;;;5089370;28;20905;-73
2021/03/25 13:17:35;;;;;;;7.40;4.10;;;;;;;;;;5076856;28;20460;-72
2021/03/25 13:20:10;;;;;;;5.60;3.30;;;;;;;;;;5086882;28;20462;-72
2021/03/25 13:23:03;;;;;;;4.90;3.10;;;;;;;;;;5075424;28;20910;-71
2021/03/25 13:25:42;;;;;;;6.50;3.77;;;;;;;;;;5089157;28;20491;-72
2021/03/25 13:28:12;;;;;;;6.60;3.23;;;;;;;;;;5089223;28;20454;-70
2021/03/25 13:33:26;;;;;;;6.17;3.57;;;;;;;;;;5073599;28;20468;-71
2021/03/25 13:35:55;;;;;;;6.67;3.30;;;;;;;;;;5077536;28;20478;-72
2021/03/25 13:38:24;;;;;;;6.50;3.50;;;;;;;;;;5086021;28;20458;-73
2021/03/25 13:40:56;;;;;;;7.07;3.73;;;;;;;;;;5087550;28;20465;-73
2021/03/25 13:43:24;;;;;;;6.27;3.30;;;;;;;;;;5097413;28;20810;-72
2021/03/25 13:45:53;;;;;;;8.07;3.53;;;;;;;;;;5099087;28;20467;-72
2021/03/25 13:48:34;;;;;;;6.20;3.90;;;;;;;;;;5086268;28;20487;-74
2021/03/25 13:51:05;;;;;;;6.50;3.50;;;;;;;;;;5078823;28;20467;-72
2021/03/25 13:53:43;;;;;;;7.10;3.60;;;;;;;;;;5077442;28;20782;-72
2021/03/25 13:56:20;;;;;;;6.57;3.97;;;;;;;;;;5080782;28;20468;-73
2021/03/25 13:59:12;;;;;;;10.30;3.50;;;;;;;;;;5079142;28;20493;-71
2021/03/25 14:01:40;;;;;;;6.03;4.27;;;;;;;;;;5085557;28;20460;-72
2021/03/25 14:04:10;;;;;;;6.20;4.03;;;;;;;;;;5093971;28;20456;-71
2021/03/25 14:06:37;;;;;;;6.13;4.50;;;;;;;;;;5076485;28;20492;-71
2021/03/25 14:09:08;;;;;;;9.50;4.10;;;;;;;;;;5082023;28;20488;-74
2021/03/25 14:11:42;;;;;;;6.03;3.90;;;;;;;;;;5078653;28;20471;-73
2021/03/25 14:14:10;;;;;;;9.43;4.33;;;;;;;;;;5079340;28;20453;-72
2021/03/25 14:16:37;;;;;;;6.00;3.70;;;;;;;;;;5085436;28;20464;-72
2021/03/25 14:19:07;;;;;;;4.73;3.50;;;;;;;;;;5077394;28;20536;-73
2021/03/25 14:21:48;;;;;;;7.47;4.87;;;;;;;;;;5082644;28;20481;-73
2021/03/25 14:24:28;;;;;;;9.40;5.97;;;;;;;;;;5079738;27;20457;-72
2021/03/25 14:26:56;;;;;;;12.20;6.50;;;;;;;;;;5077307;28;20462;-72
2021/03/25 14:29:25;;;;;;;12.57;8.23;;;;;;;;;;5080852;28;20489;-72
2021/03/25 14:31:53;;;;;;;9.93;6.20;;;;;;;;;;5075204;28;20471;-72
2021/03/25 14:34:42;;;;;;;11.80;6.23;;;;;;;;;;5073800;28;20465;-73
2021/03/25 14:37:19;;;;;;;9.20;5.60;;;;;;;;;;5076854;28;20440;-72
2021/03/25 14:39:48;;;;;;;7.60;5.10;;;;;;;;;;5077251;28;20487;-73
2021/03/25 14:42:16;;;;;;;10.10;5.67;;;;;;;;;;5077565;28;20463;-71
2021/03/25 14:44:43;;;;;;;5.53;4.13;;;;;;;;;;5074306;28;20493;-72
2021/03/25 14:47:11;;;;;;;5.90;4.00;;;;;;;;;;5084482;28;20463;-72
2021/03/25 14:49:39;;;;;;;6.27;4.20;;;;;;;;;;5080452;28;20487;-72
2021/03/25 14:52:10;;;;;;;7.10;3.97;;;;;;;;;;5075532;28;20462;-72
2021/03/25 14:54:42;;;;;;;7.67;4.07;;;;;;;;;;5083337;28;20897;-72
2021/03/25 14:57:12;;;;;;;8.57;4.73;;;;;;;;;;5082352;28;20450;-71